sensor_id;sensor_type;location;lat;lon;timestamp;P1;durP1;ratioP1;P2;durP2;ratioP2
18796;SDS011;9526;52.612;13.300;2023-09-19T00:00:06;5.75;;;2.20;;
18796;SDS011;9526;52.612;13.300;2023-09-19T00:02:35;5.20;;;2.20;;
18796;SDS011;9526;52.612;13.300;2023-09-19T00:05:00;7.10;;;2.40;;
18796;SDS011;9526;52.612;13.300;2023-09-19T00:07:25;3.75;;;2.20;;
18796;SDS011;9526;52.612;13.300;2023-09-19T00:09:49;9.32;;;2.25;;
18796;SDS011;9526;52.612;13.300;2023-09-19T00:12:13;4.55;;;2.20;;
18796;SDS011;9526;52.612;13.300;2023-09-19T00:14:37;3.03;;;2.10;;
18796;SDS011;9526;52.612;13.300;2023-09-19T00:17:02;5.40;;;2.38;;
18796;SDS011;9526;52.612;13.300;2023-09-19T00:19:31;3.47;;;2.15;;
18796;SDS011;9526;52.612;13.300;2023-09-19T00:21:55;4.07;;;2.10;;
18796;SDS011;9526;52.612;13.300;2023-09-19T00:24:18;4.75;;;2.33;;
18796;SDS011;9526;52.612;13.300;2023-09-19T00:26:42;3.45;;;2.17;;
18796;SDS011;9526;52.612;13.300;2023-09-19T00:29:09;3.75;;;2.30;;
18796;SDS011;9526;52.612;13.300;2023-09-19T00:31:34;4.47;;;2.45;;
18796;SDS011;9526;52.612;13.300;2023-09-19T00:33:59;3.60;;;2.05;;
18796;SDS011;9526;52.612;13.300;2023-09-19T00:36:33;6.18;;;2.55;;
18796;SDS011;9526;52.612;13.300;2023-09-19T00:38:57;5.03;;;2.05;;
18796;SDS011;9526;52.612;13.300;2023-09-19T00:41:21;5.88;;;2.28;;
18796;SDS011;9526;52.612;13.300;2023-09-19T00:43:46;3.63;;;2.40;;
18796;SDS011;9526;52.612;13.300;2023-09-19T00:46:15;6.53;;;2.33;;
18796;SDS011;9526;52.612;13.300;2023-09-19T00:48:41;6.15;;;2.20;;
18796;SDS011;9526;52.612;13.300;2023-09-19T00:51:06;4.93;;;2.38;;
18796;SDS011;9526;52.612;13.300;2023-09-19T00:53:31;2.40;;;1.95;;
18796;SDS011;9526;52.612;13.300;2023-09-19T00:55:56;4.05;;;2.20;;
18796;SDS011;9526;52.612;13.300;2023-09-19T00:58:20;4.13;;;2.38;;
18796;SDS011;9526;52.612;13.300;2023-09-19T01:00:44;4.75;;;2.20;;
18796;SDS011;9526;52.612;13.300;2023-09-19T01:03:10;3.92;;;2.22;;
18796;SDS011;9526;52.612;13.300;2023-09-19T01:05:35;4.47;;;2.50;;
18796;SDS011;9526;52.612;13.300;2023-09-19T01:07:59;6.30;;;2.55;;
18796;SDS011;9526;52.612;13.300;2023-09-19T01:10:25;4.30;;;2.35;;
18796;SDS011;9526;52.612;13.300;2023-09-19T01:12:52;3.53;;;2.30;;
18796;SDS011;9526;52.612;13.300;2023-09-19T01:15:27;8.40;;;2.55;;
18796;SDS011;9526;52.612;13.300;2023-09-19T01:18:02;3.85;;;2.00;;
18796;SDS011;9526;52.612;13.300;2023-09-19T01:20:40;3.53;;;2.00;;
18796;SDS011;9526;52.612;13.300;2023-09-19T01:23:17;3.75;;;1.98;;
18796;SDS011;9526;52.612;13.300;2023-09-19T01:25:56;3.85;;;1.98;;
18796;SDS011;9526;52.612;13.300;2023-09-19T01:31:42;3.58;;;2.15;;
18796;SDS011;9526;52.612;13.300;2023-09-19T01:34:07;3.65;;;2.00;;
18796;SDS011;9526;52.612;13.300;2023-09-19T01:36:32;4.35;;;2.00;;
18796;SDS011;9526;52.612;13.300;2023-09-19T01:38:58;4.18;;;2.13;;
18796;SDS011;9526;52.612;13.300;2023-09-19T01:41:29;4.68;;;1.70;;
18796;SDS011;9526;52.612;13.300;2023-09-19T01:44:09;2.80;;;1.65;;
18796;SDS011;9526;52.612;13.300;2023-09-19T01:46:40;3.42;;;1.95;;
18796;SDS011;9526;52.612;13.300;2023-09-19T01:49:13;2.30;;;1.77;;
18796;SDS011;9526;52.612;13.300;2023-09-19T01:51:49;3.88;;;1.90;;
18796;SDS011;9526;52.612;13.300;2023-09-19T01:54:24;4.68;;;1.95;;
18796;SDS011;9526;52.612;13.300;2023-09-19T01:56:57;4.47;;;1.88;;
18796;SDS011;9526;52.612;13.300;2023-09-19T01:59:28;7.88;;;2.00;;
18796;SDS011;9526;52.612;13.300;2023-09-19T02:02:01;3.30;;;1.83;;
18796;SDS011;9526;52.612;13.300;2023-09-19T02:04:29;2.75;;;2.00;;
18796;SDS011;9526;52.612;13.300;2023-09-19T02:06:52;3.92;;;1.80;;
18796;SDS011;9526;52.612;13.300;2023-09-19T02:09:19;2.70;;;1.95;;
18796;SDS011;9526;52.612;13.300;2023-09-19T02:11:42;3.63;;;2.10;;
18796;SDS011;9526;52.612;13.300;2023-09-19T02:14:06;3.10;;;2.00;;
18796;SDS011;9526;52.612;13.300;2023-09-19T02:16:31;5.95;;;3.22;;
18796;SDS011;9526;52.612;13.300;2023-09-19T02:18:56;3.10;;;1.75;;
18796;SDS011;9526;52.612;13.300;2023-09-19T02:21:21;3.75;;;2.08;;
18796;SDS011;9526;52.612;13.300;2023-09-19T02:23:45;5.32;;;2.20;;
18796;SDS011;9526;52.612;13.300;2023-09-19T02:26:09;4.60;;;2.08;;
18796;SDS011;9526;52.612;13.300;2023-09-19T02:28:35;3.95;;;1.92;;
18796;SDS011;9526;52.612;13.300;2023-09-19T02:30:59;4.75;;;2.10;;
18796;SDS011;9526;52.612;13.300;2023-09-19T02:33:23;4.53;;;2.15;;
18796;SDS011;9526;52.612;13.300;2023-09-19T02:35:49;3.28;;;2.10;;
18796;SDS011;9526;52.612;13.300;2023-09-19T02:38:13;4.47;;;2.50;;
18796;SDS011;9526;52.612;13.300;2023-09-19T02:40:40;3.17;;;2.08;;
18796;SDS011;9526;52.612;13.300;2023-09-19T02:43:05;4.80;;;2.40;;
18796;SDS011;9526;52.612;13.300;2023-09-19T02:45:30;4.35;;;2.22;;
18796;SDS011;9526;52.612;13.300;2023-09-19T02:47:55;2.88;;;1.90;;
18796;SDS011;9526;52.612;13.300;2023-09-19T02:50:20;2.95;;;2.08;;
18796;SDS011;9526;52.612;13.300;2023-09-19T02:52:45;3.53;;;2.05;;
18796;SDS011;9526;52.612;13.300;2023-09-19T02:55:10;4.05;;;1.77;;
18796;SDS011;9526;52.612;13.300;2023-09-19T02:57:36;4.78;;;2.00;;
18796;SDS011;9526;52.612;13.300;2023-09-19T03:00:02;4.00;;;2.10;;
18796;SDS011;9526;52.612;13.300;2023-09-19T03:02:27;4.00;;;1.98;;
18796;SDS011;9526;52.612;13.300;2023-09-19T03:04:54;2.50;;;2.00;;
18796;SDS011;9526;52.612;13.300;2023-09-19T03:07:19;5.40;;;1.70;;
18796;SDS011;9526;52.612;13.300;2023-09-19T03:09:45;6.35;;;2.08;;
18796;SDS011;9526;52.612;13.300;2023-09-19T03:12:09;5.88;;;2.30;;
18796;SDS011;9526;52.612;13.300;2023-09-19T03:14:36;3.10;;;1.98;;
18796;SDS011;9526;52.612;13.300;2023-09-19T03:17:00;3.72;;;1.77;;
18796;SDS011;9526;52.612;13.300;2023-09-19T03:19:26;3.33;;;1.92;;
18796;SDS011;9526;52.612;13.300;2023-09-19T03:21:52;4.05;;;1.95;;
18796;SDS011;9526;52.612;13.300;2023-09-19T03:24:16;3.67;;;2.30;;
18796;SDS011;9526;52.612;13.300;2023-09-19T03:26:41;2.88;;;1.73;;
18796;SDS011;9526;52.612;13.300;2023-09-19T03:29:07;2.95;;;1.90;;
18796;SDS011;9526;52.612;13.300;2023-09-19T03:31:32;3.03;;;1.70;;
18796;SDS011;9526;52.612;13.300;2023-09-19T03:34:01;2.83;;;1.60;;
18796;SDS011;9526;52.612;13.300;2023-09-19T03:36:26;13.43;;;1.85;;
18796;SDS011;9526;52.612;13.300;2023-09-19T03:38:55;2.58;;;1.77;;
18796;SDS011;9526;52.612;13.300;2023-09-19T03:41:20;4.20;;;1.80;;
18796;SDS011;9526;52.612;13.300;2023-09-19T03:43:46;3.47;;;1.58;;
18796;SDS011;9526;52.612;13.300;2023-09-19T03:46:11;2.72;;;1.52;;
18796;SDS011;9526;52.612;13.300;2023-09-19T03:48:37;4.65;;;1.60;;
18796;SDS011;9526;52.612;13.300;2023-09-19T03:51:01;2.03;;;1.58;;
18796;SDS011;9526;52.612;13.300;2023-09-19T03:53:25;2.20;;;1.20;;
18796;SDS011;9526;52.612;13.300;2023-09-19T03:55:48;2.50;;;1.33;;
18796;SDS011;9526;52.612;13.300;2023-09-19T03:58:13;3.83;;;1.60;;
18796;SDS011;9526;52.612;13.300;2023-09-19T04:00:38;3.85;;;1.45;;
18796;SDS011;9526;52.612;13.300;2023-09-19T04:03:02;3.78;;;1.70;;
18796;SDS011;9526;52.612;13.300;2023-09-19T04:05:28;2.53;;;1.40;;
18796;SDS011;9526;52.612;13.300;2023-09-19T04:07:52;3.20;;;1.38;;
18796;SDS011;9526;52.612;13.300;2023-09-19T04:10:16;3.65;;;1.60;;
18796;SDS011;9526;52.612;13.300;2023-09-19T04:12:41;2.85;;;1.42;;
18796;SDS011;9526;52.612;13.300;2023-09-19T04:15:14;1.38;;;1.20;;
18796;SDS011;9526;52.612;13.300;2023-09-19T04:17:39;8.98;;;1.40;;
18796;SDS011;9526;52.612;13.300;2023-09-19T04:20:04;2.00;;;1.48;;
18796;SDS011;9526;52.612;13.300;2023-09-19T04:22:29;1.98;;;1.60;;
18796;SDS011;9526;52.612;13.300;2023-09-19T04:24:53;4.32;;;1.73;;
18796;SDS011;9526;52.612;13.300;2023-09-19T04:27:16;2.22;;;1.40;;
18796;SDS011;9526;52.612;13.300;2023-09-19T04:29:40;3.15;;;1.55;;
18796;SDS011;9526;52.612;13.300;2023-09-19T04:32:04;2.15;;;1.50;;
18796;SDS011;9526;52.612;13.300;2023-09-19T04:34:30;3.33;;;1.50;;
18796;SDS011;9526;52.612;13.300;2023-09-19T04:36:56;2.17;;;1.40;;
18796;SDS011;9526;52.612;13.300;2023-09-19T04:39:22;3.15;;;1.38;;
18796;SDS011;9526;52.612;13.300;2023-09-19T04:41:47;3.05;;;1.90;;
18796;SDS011;9526;52.612;13.300;2023-09-19T04:44:11;3.15;;;1.60;;
18796;SDS011;9526;52.612;13.300;2023-09-19T04:46:35;2.78;;;1.45;;
18796;SDS011;9526;52.612;13.300;2023-09-19T04:48:59;3.75;;;1.45;;
18796;SDS011;9526;52.612;13.300;2023-09-19T04:51:24;5.07;;;1.80;;
18796;SDS011;9526;52.612;13.300;2023-09-19T04:53:50;3.28;;;1.70;;
18796;SDS011;9526;52.612;13.300;2023-09-19T04:56:14;3.72;;;1.90;;
18796;SDS011;9526;52.612;13.300;2023-09-19T04:58:38;3.95;;;1.63;;
18796;SDS011;9526;52.612;13.300;2023-09-19T05:01:01;2.78;;;1.60;;
18796;SDS011;9526;52.612;13.300;2023-09-19T05:03:25;3.55;;;1.90;;
18796;SDS011;9526;52.612;13.300;2023-09-19T05:05:49;4.03;;;2.10;;
18796;SDS011;9526;52.612;13.300;2023-09-19T05:08:14;3.58;;;2.40;;
18796;SDS011;9526;52.612;13.300;2023-09-19T05:10:38;2.45;;;1.95;;
18796;SDS011;9526;52.612;13.300;2023-09-19T05:13:02;2.15;;;1.80;;
18796;SDS011;9526;52.612;13.300;2023-09-19T05:15:26;4.07;;;2.10;;
18796;SDS011;9526;52.612;13.300;2023-09-19T05:17:50;2.22;;;2.03;;
18796;SDS011;9526;52.612;13.300;2023-09-19T05:20:18;3.95;;;2.10;;
18796;SDS011;9526;52.612;13.300;2023-09-19T05:22:46;2.40;;;1.98;;
18796;SDS011;9526;52.612;13.300;2023-09-19T05:25:13;2.20;;;2.00;;
18796;SDS011;9526;52.612;13.300;2023-09-19T05:27:37;6.25;;;2.30;;
18796;SDS011;9526;52.612;13.300;2023-09-19T05:30:01;2.00;;;1.80;;
18796;SDS011;9526;52.612;13.300;2023-09-19T05:32:26;4.68;;;2.13;;
18796;SDS011;9526;52.612;13.300;2023-09-19T05:34:50;3.65;;;1.73;;
18796;SDS011;9526;52.612;13.300;2023-09-19T05:37:15;6.43;;;1.70;;
18796;SDS011;9526;52.612;13.300;2023-09-19T05:39:39;3.53;;;1.90;;
18796;SDS011;9526;52.612;13.300;2023-09-19T05:42:04;2.33;;;1.65;;
18796;SDS011;9526;52.612;13.300;2023-09-19T05:44:29;2.72;;;1.75;;
18796;SDS011;9526;52.612;13.300;2023-09-19T05:46:54;6.00;;;1.80;;
18796;SDS011;9526;52.612;13.300;2023-09-19T05:49:19;3.70;;;1.98;;
18796;SDS011;9526;52.612;13.300;2023-09-19T05:51:43;3.20;;;1.52;;
18796;SDS011;9526;52.612;13.300;2023-09-19T05:54:08;2.33;;;1.80;;
18796;SDS011;9526;52.612;13.300;2023-09-19T05:56:32;2.83;;;1.70;;
18796;SDS011;9526;52.612;13.300;2023-09-19T05:58:57;5.32;;;1.55;;
18796;SDS011;9526;52.612;13.300;2023-09-19T06:01:21;3.33;;;1.67;;
18796;SDS011;9526;52.612;13.300;2023-09-19T06:03:45;3.47;;;1.70;;
18796;SDS011;9526;52.612;13.300;2023-09-19T06:06:09;2.22;;;1.77;;
18796;SDS011;9526;52.612;13.300;2023-09-19T06:08:32;3.85;;;2.08;;
18796;SDS011;9526;52.612;13.300;2023-09-19T06:10:56;3.25;;;1.83;;
18796;SDS011;9526;52.612;13.300;2023-09-19T06:13:21;2.45;;;1.52;;
18796;SDS011;9526;52.612;13.300;2023-09-19T06:15:48;2.80;;;1.70;;
18796;SDS011;9526;52.612;13.300;2023-09-19T06:18:12;4.28;;;2.08;;
18796;SDS011;9526;52.612;13.300;2023-09-19T06:20:41;4.32;;;1.65;;
18796;SDS011;9526;52.612;13.300;2023-09-19T06:23:06;3.50;;;2.00;;
18796;SDS011;9526;52.612;13.300;2023-09-19T06:25:31;2.92;;;1.80;;
18796;SDS011;9526;52.612;13.300;2023-09-19T06:27:55;4.43;;;2.20;;
18796;SDS011;9526;52.612;13.300;2023-09-19T06:30:19;4.40;;;2.00;;
18796;SDS011;9526;52.612;13.300;2023-09-19T06:32:46;2.17;;;1.75;;
18796;SDS011;9526;52.612;13.300;2023-09-19T06:35:10;3.50;;;2.33;;
18796;SDS011;9526;52.612;13.300;2023-09-19T06:37:34;2.90;;;2.10;;
18796;SDS011;9526;52.612;13.300;2023-09-19T06:40:00;3.28;;;2.20;;
18796;SDS011;9526;52.612;13.300;2023-09-19T06:42:27;3.55;;;1.92;;
18796;SDS011;9526;52.612;13.300;2023-09-19T06:44:51;2.00;;;1.80;;
18796;SDS011;9526;52.612;13.300;2023-09-19T06:47:14;4.35;;;1.95;;
18796;SDS011;9526;52.612;13.300;2023-09-19T06:49:40;1.92;;;1.52;;
18796;SDS011;9526;52.612;13.300;2023-09-19T06:52:05;3.03;;;1.95;;
18796;SDS011;9526;52.612;13.300;2023-09-19T06:54:29;4.25;;;2.72;;
18796;SDS011;9526;52.612;13.300;2023-09-19T06:56:52;5.72;;;1.80;;
18796;SDS011;9526;52.612;13.300;2023-09-19T06:59:16;4.85;;;1.95;;
18796;SDS011;9526;52.612;13.300;2023-09-19T07:01:40;2.20;;;1.45;;
18796;SDS011;9526;52.612;13.300;2023-09-19T07:04:06;4.13;;;1.88;;
18796;SDS011;9526;52.612;13.300;2023-09-19T07:06:31;4.85;;;1.80;;
18796;SDS011;9526;52.612;13.300;2023-09-19T07:08:56;4.07;;;1.77;;
18796;SDS011;9526;52.612;13.300;2023-09-19T07:11:19;3.45;;;1.90;;
18796;SDS011;9526;52.612;13.300;2023-09-19T07:13:44;2.70;;;1.80;;
18796;SDS011;9526;52.612;13.300;2023-09-19T07:16:08;5.57;;;1.77;;
18796;SDS011;9526;52.612;13.300;2023-09-19T07:18:49;4.40;;;2.28;;
18796;SDS011;9526;52.612;13.300;2023-09-19T07:21:13;2.97;;;2.05;;
18796;SDS011;9526;52.612;13.300;2023-09-19T07:23:39;4.07;;;1.92;;
18796;SDS011;9526;52.612;13.300;2023-09-19T07:26:02;2.25;;;1.73;;
18796;SDS011;9526;52.612;13.300;2023-09-19T07:28:27;4.78;;;1.88;;
18796;SDS011;9526;52.612;13.300;2023-09-19T07:30:51;3.92;;;1.90;;
18796;SDS011;9526;52.612;13.300;2023-09-19T07:33:15;6.00;;;2.00;;
18796;SDS011;9526;52.612;13.300;2023-09-19T07:35:39;4.57;;;2.00;;
18796;SDS011;9526;52.612;13.300;2023-09-19T07:38:03;3.70;;;2.17;;
18796;SDS011;9526;52.612;13.300;2023-09-19T07:40:28;4.03;;;1.70;;
18796;SDS011;9526;52.612;13.300;2023-09-19T07:42:52;3.28;;;2.10;;
18796;SDS011;9526;52.612;13.300;2023-09-19T07:45:16;2.72;;;1.95;;
18796;SDS011;9526;52.612;13.300;2023-09-19T07:47:40;3.90;;;2.33;;
18796;SDS011;9526;52.612;13.300;2023-09-19T07:50:06;4.53;;;1.90;;
18796;SDS011;9526;52.612;13.300;2023-09-19T07:52:31;3.80;;;2.33;;
18796;SDS011;9526;52.612;13.300;2023-09-19T07:54:55;3.40;;;1.60;;
18796;SDS011;9526;52.612;13.300;2023-09-19T07:57:20;3.20;;;2.28;;
18796;SDS011;9526;52.612;13.300;2023-09-19T07:59:44;3.88;;;2.30;;
18796;SDS011;9526;52.612;13.300;2023-09-19T08:02:08;7.32;;;2.80;;
18796;SDS011;9526;52.612;13.300;2023-09-19T08:04:37;7.57;;;2.40;;
18796;SDS011;9526;52.612;13.300;2023-09-19T08:07:01;4.82;;;2.33;;
18796;SDS011;9526;52.612;13.300;2023-09-19T08:09:27;3.72;;;2.20;;
18796;SDS011;9526;52.612;13.300;2023-09-19T08:11:54;6.63;;;2.65;;
18796;SDS011;9526;52.612;13.300;2023-09-19T08:14:20;6.07;;;2.40;;
18796;SDS011;9526;52.612;13.300;2023-09-19T08:16:45;3.47;;;2.20;;
18796;SDS011;9526;52.612;13.300;2023-09-19T08:19:09;4.78;;;2.55;;
18796;SDS011;9526;52.612;13.300;2023-09-19T08:21:33;6.30;;;2.50;;
18796;SDS011;9526;52.612;13.300;2023-09-19T08:23:57;2.85;;;2.17;;
18796;SDS011;9526;52.612;13.300;2023-09-19T08:26:23;5.43;;;2.35;;
18796;SDS011;9526;52.612;13.300;2023-09-19T08:28:47;5.85;;;2.40;;
18796;SDS011;9526;52.612;13.300;2023-09-19T08:31:14;4.03;;;2.60;;
18796;SDS011;9526;52.612;13.300;2023-09-19T08:33:39;3.65;;;2.45;;
18796;SDS011;9526;52.612;13.300;2023-09-19T08:36:03;5.38;;;2.25;;
18796;SDS011;9526;52.612;13.300;2023-09-19T08:38:28;5.40;;;2.53;;
18796;SDS011;9526;52.612;13.300;2023-09-19T08:40:54;4.32;;;2.22;;
18796;SDS011;9526;52.612;13.300;2023-09-19T08:43:21;4.65;;;2.35;;
18796;SDS011;9526;52.612;13.300;2023-09-19T08:45:45;4.40;;;2.25;;
18796;SDS011;9526;52.612;13.300;2023-09-19T08:48:17;4.93;;;2.53;;
18796;SDS011;9526;52.612;13.300;2023-09-19T08:50:48;5.40;;;2.78;;
18796;SDS011;9526;52.612;13.300;2023-09-19T08:53:19;4.40;;;2.40;;
18796;SDS011;9526;52.612;13.300;2023-09-19T08:55:51;4.55;;;2.10;;
18796;SDS011;9526;52.612;13.300;2023-09-19T08:58:18;3.65;;;2.00;;
18796;SDS011;9526;52.612;13.300;2023-09-19T09:00:47;6.57;;;2.40;;
18796;SDS011;9526;52.612;13.300;2023-09-19T09:03:13;5.05;;;2.65;;
18796;SDS011;9526;52.612;13.300;2023-09-19T09:05:41;5.22;;;2.35;;
18796;SDS011;9526;52.612;13.300;2023-09-19T09:08:08;4.38;;;2.17;;
18796;SDS011;9526;52.612;13.300;2023-09-19T09:10:33;4.60;;;2.17;;
18796;SDS011;9526;52.612;13.300;2023-09-19T09:12:57;4.78;;;2.45;;
18796;SDS011;9526;52.612;13.300;2023-09-19T09:15:22;6.22;;;2.40;;
18796;SDS011;9526;52.612;13.300;2023-09-19T09:17:46;4.57;;;2.13;;
18796;SDS011;9526;52.612;13.300;2023-09-19T09:20:13;7.82;;;2.67;;
18796;SDS011;9526;52.612;13.300;2023-09-19T09:22:38;5.53;;;2.30;;
18796;SDS011;9526;52.612;13.300;2023-09-19T09:25:06;5.95;;;1.98;;
18796;SDS011;9526;52.612;13.300;2023-09-19T09:27:30;6.13;;;2.35;;
18796;SDS011;9526;52.612;13.300;2023-09-19T09:29:55;8.85;;;2.30;;
18796;SDS011;9526;52.612;13.300;2023-09-19T09:32:19;4.18;;;2.00;;
18796;SDS011;9526;52.612;13.300;2023-09-19T09:34:45;4.25;;;1.98;;
18796;SDS011;9526;52.612;13.300;2023-09-19T09:37:14;4.53;;;2.45;;
18796;SDS011;9526;52.612;13.300;2023-09-19T09:39:38;6.13;;;2.13;;
18796;SDS011;9526;52.612;13.300;2023-09-19T09:42:04;5.35;;;2.28;;
18796;SDS011;9526;52.612;13.300;2023-09-19T09:44:31;3.85;;;2.03;;
18796;SDS011;9526;52.612;13.300;2023-09-19T09:46:55;4.97;;;2.15;;
18796;SDS011;9526;52.612;13.300;2023-09-19T09:49:49;6.72;;;2.35;;
18796;SDS011;9526;52.612;13.300;2023-09-19T09:52:30;8.20;;;2.38;;
18796;SDS011;9526;52.612;13.300;2023-09-19T09:55:08;6.85;;;2.38;;
18796;SDS011;9526;52.612;13.300;2023-09-19T09:57:31;5.97;;;2.38;;
18796;SDS011;9526;52.612;13.300;2023-09-19T09:59:55;5.70;;;2.08;;
18796;SDS011;9526;52.612;13.300;2023-09-19T10:02:38;3.58;;;2.20;;
18796;SDS011;9526;52.612;13.300;2023-09-19T10:05:10;5.95;;;2.17;;
18796;SDS011;9526;52.612;13.300;2023-09-19T10:07:44;8.20;;;2.80;;
18796;SDS011;9526;52.612;13.300;2023-09-19T10:10:11;4.70;;;2.53;;
18796;SDS011;9526;52.612;13.300;2023-09-19T10:12:38;5.35;;;2.28;;
18796;SDS011;9526;52.612;13.300;2023-09-19T10:15:10;7.82;;;2.50;;
18796;SDS011;9526;52.612;13.300;2023-09-19T10:17:37;5.15;;;2.10;;
18796;SDS011;9526;52.612;13.300;2023-09-19T10:20:05;6.18;;;2.15;;
18796;SDS011;9526;52.612;13.300;2023-09-19T10:22:40;4.82;;;2.30;;
18796;SDS011;9526;52.612;13.300;2023-09-19T10:25:08;6.57;;;2.40;;
18796;SDS011;9526;52.612;13.300;2023-09-19T10:27:34;4.93;;;2.17;;
18796;SDS011;9526;52.612;13.300;2023-09-19T10:30:00;4.15;;;1.83;;
18796;SDS011;9526;52.612;13.300;2023-09-19T10:32:25;6.68;;;2.50;;
18796;SDS011;9526;52.612;13.300;2023-09-19T10:34:55;4.00;;;2.08;;
18796;SDS011;9526;52.612;13.300;2023-09-19T10:37:20;3.97;;;2.00;;
18796;SDS011;9526;52.612;13.300;2023-09-19T10:39:49;5.32;;;2.10;;
18796;SDS011;9526;52.612;13.300;2023-09-19T10:42:18;4.85;;;2.30;;
18796;SDS011;9526;52.612;13.300;2023-09-19T10:44:43;4.72;;;2.28;;
18796;SDS011;9526;52.612;13.300;2023-09-19T10:47:11;3.90;;;2.13;;
18796;SDS011;9526;52.612;13.300;2023-09-19T10:49:35;6.13;;;2.00;;
18796;SDS011;9526;52.612;13.300;2023-09-19T10:52:09;7.32;;;2.33;;
18796;SDS011;9526;52.612;13.300;2023-09-19T10:54:36;6.40;;;2.50;;
18796;SDS011;9526;52.612;13.300;2023-09-19T10:57:04;5.63;;;2.28;;
18796;SDS011;9526;52.612;13.300;2023-09-19T10:59:30;7.15;;;2.35;;
18796;SDS011;9526;52.612;13.300;2023-09-19T11:01:56;5.63;;;2.05;;
18796;SDS011;9526;52.612;13.300;2023-09-19T11:04:23;7.63;;;2.55;;
18796;SDS011;9526;52.612;13.300;2023-09-19T11:06:59;5.72;;;2.00;;
18796;SDS011;9526;52.612;13.300;2023-09-19T11:09:42;4.38;;;1.95;;
18796;SDS011;9526;52.612;13.300;2023-09-19T11:12:13;5.70;;;2.25;;
18796;SDS011;9526;52.612;13.300;2023-09-19T11:24:29;7.00;;;1.83;;
18796;SDS011;9526;52.612;13.300;2023-09-19T11:27:10;4.03;;;1.60;;
18796;SDS011;9526;52.612;13.300;2023-09-19T11:29:39;5.15;;;1.67;;
18796;SDS011;9526;52.612;13.300;2023-09-19T11:32:03;5.70;;;2.00;;
18796;SDS011;9526;52.612;13.300;2023-09-19T11:34:40;3.45;;;1.40;;
18796;SDS011;9526;52.612;13.300;2023-09-19T11:40:33;4.75;;;1.90;;
18796;SDS011;9526;52.612;13.300;2023-09-19T11:42:58;5.18;;;1.65;;
18796;SDS011;9526;52.612;13.300;2023-09-19T11:48:38;5.30;;;1.42;;
18796;SDS011;9526;52.612;13.300;2023-09-19T11:51:13;7.68;;;1.88;;
18796;SDS011;9526;52.612;13.300;2023-09-19T11:53:44;4.97;;;1.70;;
18796;SDS011;9526;52.612;13.300;2023-09-19T11:56:10;6.20;;;1.63;;
18796;SDS011;9526;52.612;13.300;2023-09-19T11:58:38;6.40;;;1.45;;
18796;SDS011;9526;52.612;13.300;2023-09-19T12:01:05;5.15;;;1.42;;
18796;SDS011;9526;52.612;13.300;2023-09-19T12:03:35;4.75;;;1.35;;
18796;SDS011;9526;52.612;13.300;2023-09-19T12:06:03;3.72;;;1.48;;
18796;SDS011;9526;52.612;13.300;2023-09-19T12:08:36;7.15;;;1.70;;
18796;SDS011;9526;52.612;13.300;2023-09-19T12:11:04;4.30;;;1.90;;
18796;SDS011;9526;52.612;13.300;2023-09-19T12:13:32;3.53;;;1.67;;
18796;SDS011;9526;52.612;13.300;2023-09-19T12:15:57;4.43;;;1.40;;
18796;SDS011;9526;52.612;13.300;2023-09-19T12:18:28;4.90;;;1.42;;
18796;SDS011;9526;52.612;13.300;2023-09-19T12:20:52;5.00;;;1.42;;
18796;SDS011;9526;52.612;13.300;2023-09-19T12:23:17;4.07;;;1.52;;
18796;SDS011;9526;52.612;13.300;2023-09-19T12:25:41;3.88;;;1.50;;
18796;SDS011;9526;52.612;13.300;2023-09-19T12:28:08;3.55;;;1.80;;
18796;SDS011;9526;52.612;13.300;2023-09-19T12:30:32;2.55;;;1.20;;
18796;SDS011;9526;52.612;13.300;2023-09-19T12:32:59;2.97;;;1.60;;
18796;SDS011;9526;52.612;13.300;2023-09-19T12:35:28;4.28;;;1.67;;
18796;SDS011;9526;52.612;13.300;2023-09-19T12:37:56;4.07;;;1.58;;
18796;SDS011;9526;52.612;13.300;2023-09-19T12:40:20;4.47;;;1.38;;
18796;SDS011;9526;52.612;13.300;2023-09-19T12:42:51;4.78;;;1.20;;
18796;SDS011;9526;52.612;13.300;2023-09-19T12:45:17;3.67;;;1.20;;
18796;SDS011;9526;52.612;13.300;2023-09-19T12:47:41;2.80;;;1.23;;
18796;SDS011;9526;52.612;13.300;2023-09-19T12:51:01;4.15;;;1.42;;
18796;SDS011;9526;52.612;13.300;2023-09-19T12:53:30;2.72;;;1.10;;
18796;SDS011;9526;52.612;13.300;2023-09-19T12:55:59;8.23;;;1.63;;
18796;SDS011;9526;52.612;13.300;2023-09-19T12:58:24;6.85;;;1.33;;
18796;SDS011;9526;52.612;13.300;2023-09-19T13:00:48;2.85;;;1.50;;
18796;SDS011;9526;52.612;13.300;2023-09-19T13:03:14;1.85;;;1.10;;
18796;SDS011;9526;52.612;13.300;2023-09-19T13:05:52;4.97;;;1.40;;
18796;SDS011;9526;52.612;13.300;2023-09-19T13:08:17;3.17;;;1.55;;
18796;SDS011;9526;52.612;13.300;2023-09-19T13:13:34;3.63;;;1.38;;
18796;SDS011;9526;52.612;13.300;2023-09-19T13:16:01;8.55;;;1.33;;
18796;SDS011;9526;52.612;13.300;2023-09-19T13:18:29;4.50;;;1.40;;
18796;SDS011;9526;52.612;13.300;2023-09-19T13:21:08;1.30;;;1.13;;
18796;SDS011;9526;52.612;13.300;2023-09-19T13:23:34;5.22;;;1.48;;
18796;SDS011;9526;52.612;13.300;2023-09-19T13:25:58;3.67;;;1.25;;
18796;SDS011;9526;52.612;13.300;2023-09-19T13:28:22;3.55;;;1.50;;
18796;SDS011;9526;52.612;13.300;2023-09-19T13:30:46;3.08;;;1.30;;
18796;SDS011;9526;52.612;13.300;2023-09-19T13:33:10;3.17;;;1.40;;
18796;SDS011;9526;52.612;13.300;2023-09-19T13:35:41;5.65;;;1.40;;
18796;SDS011;9526;52.612;13.300;2023-09-19T13:38:06;3.13;;;1.17;;
18796;SDS011;9526;52.612;13.300;2023-09-19T13:40:33;3.47;;;1.38;;
18796;SDS011;9526;52.612;13.300;2023-09-19T13:42:57;3.15;;;1.40;;
18796;SDS011;9526;52.612;13.300;2023-09-19T13:45:21;4.05;;;1.60;;
18796;SDS011;9526;52.612;13.300;2023-09-19T13:47:46;5.68;;;1.50;;
18796;SDS011;9526;52.612;13.300;2023-09-19T13:50:10;3.05;;;1.30;;
18796;SDS011;9526;52.612;13.300;2023-09-19T13:52:33;4.28;;;1.27;;
18796;SDS011;9526;52.612;13.300;2023-09-19T13:54:59;2.40;;;1.20;;
18796;SDS011;9526;52.612;13.300;2023-09-19T13:57:23;3.92;;;1.42;;
18796;SDS011;9526;52.612;13.300;2023-09-19T13:59:47;7.93;;;1.38;;
18796;SDS011;9526;52.612;13.300;2023-09-19T14:02:10;2.97;;;1.30;;
18796;SDS011;9526;52.612;13.300;2023-09-19T14:04:35;3.28;;;1.50;;
18796;SDS011;9526;52.612;13.300;2023-09-19T14:06:59;3.67;;;1.50;;
18796;SDS011;9526;52.612;13.300;2023-09-19T14:09:23;2.70;;;1.15;;
18796;SDS011;9526;52.612;13.300;2023-09-19T14:11:48;2.67;;;1.20;;
18796;SDS011;9526;52.612;13.300;2023-09-19T14:14:14;3.80;;;1.08;;
18796;SDS011;9526;52.612;13.300;2023-09-19T14:16:37;4.72;;;1.20;;
18796;SDS011;9526;52.612;13.300;2023-09-19T14:19:04;3.30;;;1.10;;
18796;SDS011;9526;52.612;13.300;2023-09-19T14:21:31;3.33;;;1.30;;
18796;SDS011;9526;52.612;13.300;2023-09-19T14:23:55;4.50;;;1.60;;
18796;SDS011;9526;52.612;13.300;2023-09-19T14:26:19;3.92;;;1.45;;
18796;SDS011;9526;52.612;13.300;2023-09-19T14:28:46;4.75;;;1.70;;
18796;SDS011;9526;52.612;13.300;2023-09-19T14:31:10;5.43;;;1.35;;
18796;SDS011;9526;52.612;13.300;2023-09-19T14:33:34;4.45;;;1.48;;
18796;SDS011;9526;52.612;13.300;2023-09-19T14:35:58;6.25;;;1.40;;
18796;SDS011;9526;52.612;13.300;2023-09-19T14:38:27;6.32;;;1.40;;
18796;SDS011;9526;52.612;13.300;2023-09-19T14:40:58;5.93;;;1.25;;
18796;SDS011;9526;52.612;13.300;2023-09-19T14:43:23;2.78;;;1.65;;
18796;SDS011;9526;52.612;13.300;2023-09-19T14:45:48;1.95;;;1.45;;
18796;SDS011;9526;52.612;13.300;2023-09-19T14:48:12;2.92;;;1.23;;
18796;SDS011;9526;52.612;13.300;2023-09-19T14:50:36;1.77;;;1.17;;
18796;SDS011;9526;52.612;13.300;2023-09-19T14:53:00;3.50;;;1.60;;
18796;SDS011;9526;52.612;13.300;2023-09-19T14:55:24;4.13;;;1.50;;
18796;SDS011;9526;52.612;13.300;2023-09-19T14:57:49;7.38;;;1.58;;
18796;SDS011;9526;52.612;13.300;2023-09-19T15:00:14;3.88;;;1.42;;
18796;SDS011;9526;52.612;13.300;2023-09-19T15:02:41;2.50;;;1.42;;
18796;SDS011;9526;52.612;13.300;2023-09-19T15:05:08;6.05;;;1.55;;